createdAt,value
2018-08-28T00:00:19.267Z,16.51
2018-08-28T00:02:47.604Z,16.48
2018-08-28T00:05:15.818Z,16.41
2018-08-28T00:07:44.102Z,16.41
2018-08-28T00:10:12.388Z,16.48
2018-08-28T00:12:40.811Z,16.44
2018-08-28T00:15:09.112Z,16.39
2018-08-28T00:17:37.368Z,16.41
2018-08-28T00:20:05.764Z,16.41
2018-08-28T00:22:34.021Z,16.46
2018-08-28T00:25:02.594Z,16.50
2018-08-28T00:27:30.918Z,16.47
2018-08-28T00:29:59.139Z,16.43
2018-08-28T00:32:27.456Z,16.34
2018-08-28T00:34:55.731Z,16.29
2018-08-28T00:37:24.101Z,16.35
2018-08-28T00:39:52.638Z,16.27
2018-08-28T00:42:20.801Z,16.31
2018-08-28T00:44:49.015Z,16.32
2018-08-28T00:47:17.301Z,16.35
2018-08-28T00:49:45.580Z,16.37
2018-08-28T00:52:13.819Z,16.37
2018-08-28T00:54:42.128Z,16.38
2018-08-28T00:57:10.409Z,16.38
2018-08-28T00:59:38.635Z,16.40
2018-08-28T01:02:06.895Z,16.38
2018-08-28T01:04:35.154Z,16.40
2018-08-28T01:07:03.543Z,16.38
2018-08-28T01:09:31.708Z,16.40
2018-08-28T01:11:59.982Z,16.37
2018-08-28T01:14:28.190Z,16.35
2018-08-28T01:16:56.554Z,16.35
2018-08-28T01:19:24.828Z,16.36
2018-08-28T01:21:53.189Z,16.40
2018-08-28T01:24:21.398Z,16.46
2018-08-28T01:26:49.662Z,16.40
2018-08-28T01:29:17.932Z,16.40
2018-08-28T01:31:46.211Z,16.38
2018-08-28T01:34:14.488Z,16.38
2018-08-28T01:36:42.734Z,16.37
2018-08-28T01:39:10.956Z,16.32
2018-08-28T01:41:39.171Z,16.27
2018-08-28T01:44:07.418Z,16.27
2018-08-28T01:46:35.677Z,16.23
2018-08-28T01:49:04.043Z,16.24
2018-08-28T01:51:32.274Z,16.21
2018-08-28T01:54:00.517Z,16.20
2018-08-28T01:56:28.789Z,16.14
2018-08-28T01:58:56.995Z,16.16
2018-08-28T02:01:25.364Z,16.15
2018-08-28T02:03:53.610Z,16.14
2018-08-28T02:06:21.851Z,16.15
2018-08-28T02:08:50.118Z,16.08
2018-08-28T02:11:18.356Z,16.06
2018-08-28T02:13:46.653Z,16.10
2018-08-28T02:16:15.024Z,16.03
2018-08-28T02:18:43.160Z,16.07
2018-08-28T02:21:11.379Z,16.06
2018-08-28T02:23:39.600Z,16.01
2018-08-28T02:26:07.881Z,16.02
2018-08-28T02:28:36.096Z,15.99
2018-08-28T02:31:04.345Z,16.05
2018-08-28T02:33:32.504Z,16.04
2018-08-28T02:36:01.327Z,16.04
2018-08-28T02:38:29.498Z,15.98
2018-08-28T02:40:57.745Z,16.00
2018-08-28T02:43:26.097Z,15.99
2018-08-28T02:45:54.329Z,15.97
2018-08-28T02:48:22.528Z,15.98
2018-08-28T02:50:50.766Z,15.95
2018-08-28T02:53:19.046Z,16.00
2018-08-28T02:55:47.202Z,16.03
2018-08-28T02:58:15.477Z,16.04
2018-08-28T03:00:43.745Z,16.05
2018-08-28T03:03:12.021Z,16.04
2018-08-28T03:05:40.328Z,16.02
2018-08-28T03:08:08.569Z,16.10
2018-08-28T03:10:36.850Z,16.08
2018-08-28T03:13:05.119Z,16.08
2018-08-28T03:15:33.463Z,16.08
2018-08-28T03:18:01.696Z,16.06
2018-08-28T03:20:29.881Z,16.04
2018-08-28T03:22:58.153Z,16.07
2018-08-28T03:25:26.388Z,16.04
2018-08-28T03:27:54.678Z,16.05
2018-08-28T03:30:22.994Z,16.08
2018-08-28T03:32:51.273Z,16.06
2018-08-28T03:35:19.477Z,16.04
2018-08-28T03:37:47.694Z,16.10
2018-08-28T03:40:16.046Z,16.06
2018-08-28T03:42:44.408Z,16.12
2018-08-28T03:45:12.634Z,16.10
2018-08-28T03:47:40.879Z,16.15
2018-08-28T03:50:09.092Z,16.16
2018-08-28T03:52:37.371Z,16.16
2018-08-28T03:55:05.564Z,16.10
2018-08-28T03:57:33.778Z,16.11
2018-08-28T04:00:02.297Z,16.10
2018-08-28T04:02:30.586Z,16.09
2018-08-28T04:04:58.904Z,16.06
2018-08-28T04:07:27.124Z,16.04
2018-08-28T04:09:55.346Z,16.05
2018-08-28T04:12:23.553Z,16.07
2018-08-28T04:14:51.766Z,16.05
2018-08-28T04:17:20.135Z,16.04
2018-08-28T04:19:48.302Z,16.05
2018-08-28T04:22:16.572Z,16.07
2018-08-28T04:24:44.762Z,16.11
2018-08-28T04:27:13.076Z,16.03
2018-08-28T04:29:41.223Z,16.07
2018-08-28T04:32:09.461Z,15.98
2018-08-28T04:34:37.698Z,16.04
2018-08-28T04:37:06.275Z,15.99
2018-08-28T04:39:34.432Z,15.96
2018-08-28T04:42:02.694Z,15.98
2018-08-28T04:44:30.937Z,15.97
2018-08-28T04:46:59.192Z,15.96
2018-08-28T04:49:27.407Z,15.93
2018-08-28T04:51:55.687Z,15.99
2018-08-28T04:54:24.045Z,15.98
2018-08-28T04:56:52.171Z,15.99
2018-08-28T04:59:20.385Z,15.96
2018-08-28T05:01:48.713Z,16.03
2018-08-28T05:04:16.983Z,16.00
2018-08-28T05:06:45.323Z,16.02
2018-08-28T05:09:13.611Z,16.04
2018-08-28T05:11:41.879Z,16.04
2018-08-28T05:14:10.037Z,16.04
2018-08-28T05:16:38.284Z,16.05
2018-08-28T05:19:06.576Z,16.08
2018-08-28T05:21:42.508Z,16.12
2018-08-28T05:24:10.822Z,16.17
2018-08-28T05:26:39.108Z,16.20
2018-08-28T05:29:07.369Z,16.17
2018-08-28T05:31:35.675Z,16.19
2018-08-28T05:34:04.004Z,16.19
2018-08-28T05:36:32.181Z,16.25
2018-08-28T05:39:00.465Z,16.23
2018-08-28T05:41:28.657Z,16.19
2018-08-28T05:43:56.918Z,16.17
2018-08-28T05:46:25.195Z,16.14
2018-08-28T05:48:53.475Z,16.15
2018-08-28T05:51:21.666Z,16.21
2018-08-28T05:53:49.944Z,16.15
2018-08-28T05:56:18.303Z,16.12
2018-08-28T05:58:46.480Z,16.11
2018-08-28T06:01:14.674Z,16.05
2018-08-28T06:03:45.018Z,16.10
2018-08-28T06:06:13.335Z,16.17
2018-08-28T06:08:41.757Z,16.14
2018-08-28T06:11:10.039Z,16.16
2018-08-28T06:13:38.343Z,16.16
2018-08-28T06:16:06.719Z,16.20
2018-08-28T06:18:35.352Z,16.17
2018-08-28T06:21:03.596Z,16.22
2018-08-28T06:23:31.857Z,16.21
2018-08-28T06:26:00.211Z,16.25
2018-08-28T06:28:28.460Z,16.25
2018-08-28T06:30:56.824Z,16.26
2018-08-28T06:33:25.402Z,16.22
2018-08-28T06:35:53.665Z,16.29
2018-08-28T06:38:21.867Z,16.27
2018-08-28T06:40:50.153Z,16.31
2018-08-28T06:43:18.415Z,16.33
2018-08-28T06:45:46.888Z,16.35
2018-08-28T06:48:15.407Z,16.38
2018-08-28T06:50:43.774Z,16.36
2018-08-28T06:53:12.115Z,16.37
2018-08-28T06:55:40.390Z,16.40
2018-08-28T06:58:08.849Z,16.45
2018-08-28T07:00:37.209Z,16.51
2018-08-28T07:03:05.552Z,16.59
2018-08-28T07:05:33.907Z,16.70
2018-08-28T07:08:02.150Z,16.77
2018-08-28T07:10:30.376Z,16.79
2018-08-28T07:12:58.672Z,16.82
2018-08-28T07:15:26.930Z,16.83
2018-08-28T07:17:55.221Z,16.83
2018-08-28T07:20:23.491Z,16.80
2018-08-28T07:22:51.725Z,16.85
2018-08-28T07:25:19.981Z,16.89
2018-08-28T07:27:48.229Z,16.96
2018-08-28T07:30:16.473Z,16.97
2018-08-28T07:32:45.260Z,17.00
2018-08-28T07:35:13.571Z,17.16
2018-08-28T07:37:42.003Z,17.34
2018-08-28T07:40:10.236Z,17.41
2018-08-28T07:42:38.535Z,17.59
2018-08-28T07:45:06.795Z,17.70
2018-08-28T07:47:35.189Z,17.86
2018-08-28T07:50:03.559Z,18.09
2018-08-28T07:52:31.905Z,18.24
2018-08-28T07:55:00.355Z,18.37
2018-08-28T07:57:28.680Z,18.42
2018-08-28T07:59:57.016Z,18.43
2018-08-28T08:02:25.648Z,18.43
2018-08-28T08:04:53.987Z,18.52
2018-08-28T08:07:22.203Z,18.55
2018-08-28T08:09:50.596Z,18.67
2018-08-28T08:12:20.118Z,18.81
2018-08-28T08:14:47.327Z,19.01
2018-08-28T08:17:15.566Z,19.15
2018-08-28T08:19:43.906Z,19.27
2018-08-28T08:22:12.289Z,19.33
2018-08-28T08:24:40.455Z,19.40
2018-08-28T08:27:08.936Z,19.41
2018-08-28T08:29:37.218Z,19.39
2018-08-28T08:32:05.506Z,19.47
2018-08-28T08:34:33.796Z,19.67
2018-08-28T08:37:02.121Z,19.75
2018-08-28T08:39:30.338Z,19.79
2018-08-28T08:41:58.702Z,19.72
2018-08-28T08:44:26.971Z,19.82
2018-08-28T08:46:55.263Z,19.97
2018-08-28T08:49:23.765Z,20.05
2018-08-28T08:51:52.062Z,20.04
2018-08-28T08:54:20.392Z,20.09
2018-08-28T08:56:52.023Z,20.21
2018-08-28T08:59:20.330Z,20.29
2018-08-28T09:01:48.637Z,20.36
2018-08-28T09:04:16.899Z,20.49
2018-08-28T09:06:45.249Z,20.64
2018-08-28T09:09:13.613Z,20.74
2018-08-28T09:11:42.005Z,20.80
2018-08-28T09:14:10.303Z,20.87
2018-08-28T09:16:38.628Z,20.94
2018-08-28T09:19:06.856Z,20.93
2018-08-28T09:21:36.250Z,20.94
2018-08-28T09:24:03.401Z,21.03
2018-08-28T09:26:31.704Z,21.08
2018-08-28T09:28:59.897Z,21.11
2018-08-28T09:31:28.286Z,21.10
2018-08-28T09:33:56.464Z,21.14
2018-08-28T09:36:24.721Z,21.16
2018-08-28T09:38:53.161Z,21.14
2018-08-28T09:41:21.526Z,21.12
2018-08-28T09:43:49.808Z,21.08
2018-08-28T09:46:18.107Z,21.00
2018-08-28T09:51:13.757Z,20.88
2018-08-28T09:53:42.100Z,20.81
2018-08-28T09:56:10.523Z,20.71
2018-08-28T09:58:39.335Z,20.66
2018-08-28T10:01:25.512Z,20.55
2018-08-28T10:03:53.985Z,20.43
2018-08-28T10:06:22.332Z,20.35
2018-08-28T10:08:50.637Z,20.26
2018-08-28T10:11:18.891Z,20.16
2018-08-28T10:13:47.258Z,20.12
2018-08-28T10:16:18.259Z,20.13
2018-08-28T10:18:46.700Z,20.03
2018-08-28T10:21:14.901Z,19.99
2018-08-28T10:23:43.176Z,19.99
2018-08-28T10:26:11.426Z,19.98
2018-08-28T10:28:39.889Z,19.96
2018-08-28T10:31:08.236Z,19.99
2018-08-28T10:33:36.646Z,20.03
2018-08-28T10:36:05.029Z,20.05
2018-08-28T10:38:33.433Z,20.09
2018-08-28T10:41:01.723Z,20.12
2018-08-28T10:43:30.179Z,20.25
2018-08-28T10:46:01.535Z,20.51
2018-08-28T10:48:29.756Z,20.79
2018-08-28T10:50:58.109Z,20.81
2018-08-28T10:53:26.419Z,20.75
2018-08-28T10:55:54.767Z,20.71
2018-08-28T10:58:23.235Z,21.00
2018-08-28T11:00:51.441Z,21.20
2018-08-28T11:03:19.892Z,21.22
2018-08-28T11:05:48.869Z,21.39
2018-08-28T11:08:17.398Z,21.65
2018-08-28T11:10:49.074Z,21.86
2018-08-28T11:13:17.525Z,22.12
2018-08-28T11:15:45.857Z,22.29
2018-08-28T11:18:14.128Z,22.47
2018-08-28T11:20:42.411Z,22.68
2018-08-28T11:23:10.791Z,22.87
2018-08-28T11:25:39.017Z,23.06
2018-08-28T11:28:07.305Z,23.19
2018-08-28T11:30:35.606Z,23.34
2018-08-28T11:33:03.974Z,23.48
2018-08-28T11:35:34.677Z,23.46
2018-08-28T11:38:02.925Z,23.14
2018-08-28T11:40:31.182Z,22.79
2018-08-28T11:42:59.432Z,22.55
2018-08-28T11:45:27.932Z,22.70
2018-08-28T11:47:56.221Z,22.93
2018-08-28T11:50:30.222Z,23.21
2018-08-28T11:52:58.442Z,23.36
2018-08-28T11:55:26.703Z,23.45
2018-08-28T11:57:57.562Z,23.64
2018-08-28T12:00:25.825Z,23.76
2018-08-28T12:02:54.128Z,23.58
2018-08-28T12:05:22.414Z,23.67
2018-08-28T12:07:50.944Z,23.73
2018-08-28T12:10:21.380Z,23.78
2018-08-28T12:12:49.627Z,23.79
2018-08-28T12:15:18.373Z,23.52
2018-08-28T12:17:46.614Z,23.11
2018-08-28T12:20:14.946Z,22.88
2018-08-28T12:22:43.127Z,22.74
2018-08-28T12:25:11.522Z,22.57
2018-08-28T12:27:39.709Z,22.36
2018-08-28T12:30:09.237Z,22.31
2018-08-28T12:32:37.578Z,22.14
2018-08-28T12:35:06.599Z,21.97
2018-08-28T12:37:35.018Z,21.88
2018-08-28T12:40:06.523Z,21.78
2018-08-28T12:42:34.807Z,21.63
2018-08-28T12:45:03.149Z,21.56
2018-08-28T12:47:31.598Z,21.55
2018-08-28T12:49:59.927Z,21.44
2018-08-28T12:52:34.510Z,21.44
2018-08-28T12:55:02.965Z,21.49
2018-08-28T12:57:31.241Z,21.51
2018-08-28T12:59:59.619Z,21.61
2018-08-28T13:02:27.891Z,21.67
2018-08-28T13:04:56.143Z,21.68
2018-08-28T13:07:24.593Z,21.66
2018-08-28T13:09:52.746Z,21.61
2018-08-28T13:12:21.090Z,21.55
2018-08-28T13:14:49.435Z,21.57
2018-08-28T13:17:17.769Z,21.58
2018-08-28T13:19:46.286Z,21.56
2018-08-28T13:22:14.521Z,21.53
2018-08-28T13:24:42.893Z,21.47
2018-08-28T13:27:11.172Z,21.47
2018-08-28T13:29:39.540Z,21.48
2018-08-28T13:32:08.025Z,21.41
2018-08-28T13:34:36.415Z,21.47
2018-08-28T13:37:04.882Z,21.40
2018-08-28T13:39:33.112Z,21.34
2018-08-28T13:42:01.470Z,21.32
2018-08-28T13:44:29.737Z,21.34
2018-08-28T13:46:58.090Z,21.36
2018-08-28T13:49:26.293Z,21.31
2018-08-28T13:51:54.661Z,21.33
2018-08-28T13:54:23.009Z,21.30
2018-08-28T13:56:51.277Z,21.34
2018-08-28T13:59:19.968Z,21.33
2018-08-28T14:01:48.163Z,21.33
2018-08-28T14:04:16.408Z,21.28
2018-08-28T14:06:47.625Z,21.34
2018-08-28T14:09:17.222Z,21.31
2018-08-28T14:11:45.498Z,21.30
2018-08-28T14:14:13.694Z,21.34
2018-08-28T14:16:47.245Z,21.29
2018-08-28T14:19:15.615Z,21.38
2018-08-28T14:22:00.247Z,21.38
2018-08-28T14:24:28.576Z,21.44
2018-08-28T14:26:56.917Z,21.48
2018-08-28T14:29:25.554Z,21.49
2018-08-28T14:31:53.724Z,21.52
2018-08-28T14:34:22.153Z,21.49
2018-08-28T14:36:51.044Z,21.49
2018-08-28T14:39:19.492Z,21.45
2018-08-28T14:41:54.621Z,21.43
2018-08-28T14:44:23.241Z,21.48
2018-08-28T14:46:51.621Z,21.52
2018-08-28T14:49:32.520Z,21.53
2018-08-28T14:51:59.593Z,21.55
2018-08-28T14:54:27.962Z,21.57
2018-08-28T14:56:59.027Z,21.58
2018-08-28T14:59:27.503Z,21.63
2018-08-28T15:01:58.569Z,21.57
2018-08-28T15:04:26.850Z,21.54
2018-08-28T15:06:55.146Z,21.55
2018-08-28T15:09:23.682Z,21.59
2018-08-28T15:11:51.890Z,21.48
2018-08-28T15:14:20.271Z,21.46
2018-08-28T15:16:48.796Z,21.36
2018-08-28T15:19:17.094Z,21.40
2018-08-28T15:21:45.493Z,21.41
2018-08-28T15:24:16.558Z,21.36
2018-08-28T15:26:51.391Z,21.44
2018-08-28T15:29:23.491Z,21.41
2018-08-28T15:31:51.700Z,21.48
2018-08-28T15:34:22.253Z,21.51
2018-08-28T15:36:50.693Z,21.51
2018-08-28T15:39:22.117Z,21.51
2018-08-28T15:41:50.841Z,21.52
2018-08-28T15:44:19.157Z,21.54
2018-08-28T15:46:47.509Z,21.54
2018-08-28T15:49:15.862Z,21.52
2018-08-28T15:51:44.146Z,21.51
2018-08-28T15:54:12.415Z,21.50
2018-08-28T15:56:40.652Z,21.49
2018-08-28T15:59:09.019Z,21.50
2018-08-28T16:01:37.266Z,21.50
2018-08-28T16:04:13.231Z,21.50
2018-08-28T16:06:42.638Z,21.50
2018-08-28T16:09:11.016Z,21.49
2018-08-28T16:11:39.332Z,21.50
2018-08-28T16:14:07.723Z,21.52
2018-08-28T16:16:39.056Z,21.47
2018-08-28T16:19:07.743Z,21.51
2018-08-28T16:32:01.654Z,21.47
2018-08-28T16:34:30.240Z,21.40
2018-08-28T16:36:58.528Z,21.38
2018-08-28T16:39:26.876Z,21.41
2018-08-28T16:41:55.955Z,21.37
2018-08-28T16:44:46.464Z,21.37
2018-08-28T16:47:15.030Z,21.40
2018-08-28T16:49:43.210Z,21.37
2018-08-28T16:52:11.554Z,21.37
2018-08-28T16:54:39.970Z,21.31
2018-08-28T16:57:09.126Z,21.31
2018-08-28T16:59:37.523Z,21.31
2018-08-28T17:02:06.067Z,21.30
2018-08-28T17:04:35.550Z,21.30
2018-08-28T17:07:06.763Z,21.25
2018-08-28T17:09:40.722Z,21.26
2018-08-28T17:12:11.969Z,21.28
2018-08-28T17:14:47.049Z,21.27
2018-08-28T17:17:15.537Z,21.32
2018-08-28T17:19:43.763Z,21.33
2018-08-28T17:22:12.094Z,21.33
2018-08-28T17:24:40.460Z,21.35
2018-08-28T17:27:09.060Z,21.32
2018-08-28T17:29:37.533Z,21.29
2018-08-28T17:32:09.947Z,21.26
2018-08-28T17:34:38.241Z,21.21
2018-08-28T17:37:06.783Z,21.23
2018-08-28T17:39:35.485Z,21.26
2018-08-28T17:42:06.084Z,21.25
2018-08-28T17:44:33.325Z,21.34
2018-08-28T17:47:07.577Z,21.22
2018-08-28T17:49:36.739Z,21.23
2018-08-28T17:52:05.730Z,21.03
2018-08-28T17:54:34.578Z,21.03
2018-08-28T17:57:03.041Z,21.01
2018-08-28T17:59:31.862Z,21.07
2018-08-28T18:02:00.338Z,21.09
2018-08-28T18:04:28.848Z,21.10
2018-08-28T18:06:59.274Z,21.08
2018-08-28T18:09:27.745Z,21.04
2018-08-28T18:11:58.892Z,21.02
2018-08-28T18:14:30.255Z,20.97
2018-08-28T18:16:58.675Z,20.97
2018-08-28T18:22:39.686Z,20.99
2018-08-28T18:25:41.890Z,21.02
2018-08-28T18:28:10.111Z,20.97
2018-08-28T18:30:49.956Z,20.96
2018-08-28T18:33:28.924Z,20.93
2018-08-28T18:36:12.266Z,20.98
2018-08-28T18:38:45.000Z,20.96
2018-08-28T18:41:33.276Z,20.99
2018-08-28T18:44:52.246Z,21.00
2018-08-28T18:48:15.763Z,20.99
2018-08-28T18:51:25.452Z,21.01
2018-08-28T18:57:24.106Z,20.95
2018-08-28T19:00:19.946Z,20.94
2018-08-28T19:06:01.945Z,20.85
2018-08-28T19:08:51.628Z,20.58
2018-08-28T19:11:29.546Z,20.54
2018-08-28T19:14:52.228Z,20.63
2018-08-28T19:18:12.910Z,20.65
2018-08-28T19:21:15.606Z,20.72
2018-08-28T19:24:45.521Z,20.80
2018-08-28T19:27:46.472Z,20.59
2018-08-28T19:31:00.272Z,20.62
2018-08-28T19:34:18.549Z,20.65
2018-08-28T19:36:53.456Z,20.75
2018-08-28T19:39:41.591Z,20.80
2018-08-28T19:43:07.028Z,20.82
2018-08-28T19:45:59.543Z,20.79
2018-08-28T19:49:39.016Z,20.72
2018-08-28T19:52:30.257Z,20.69
2018-08-28T19:55:52.664Z,20.36
2018-08-28T19:58:49.225Z,20.15
2018-08-28T20:02:06.642Z,20.06
2018-08-28T20:04:43.442Z,20.00
2018-08-28T20:07:16.185Z,20.04
2018-08-28T20:10:00.309Z,19.90
2018-08-28T20:13:03.728Z,19.87
2018-08-28T20:16:16.847Z,20.07
2018-08-28T20:19:16.832Z,20.26
2018-08-28T20:22:08.548Z,20.05
2018-08-28T20:31:39.223Z,19.65
2018-08-28T20:34:18.766Z,19.65
2018-08-28T20:37:24.509Z,19.61
2018-08-28T20:39:50.210Z,19.65
2018-08-28T20:42:33.855Z,19.64
2018-08-28T20:45:48.020Z,19.73
2018-08-28T20:48:42.180Z,19.72
2018-08-28T20:51:34.018Z,19.66
2018-08-28T21:01:30.089Z,19.57
2018-08-28T21:04:14.658Z,19.61
2018-08-28T21:07:34.419Z,19.57
2018-08-28T21:11:09.843Z,19.54
2018-08-28T21:18:04.457Z,19.54
2018-08-28T21:20:46.858Z,19.43
2018-08-28T21:27:37.537Z,19.33
2018-08-28T21:30:41.827Z,19.35
2018-08-28T21:33:54.339Z,19.16
2018-08-28T21:37:01.804Z,19.17
2018-08-28T21:40:00.805Z,19.06
2018-08-28T21:43:17.216Z,19.01
2018-08-28T21:46:50.472Z,19.06
2018-08-28T21:53:10.970Z,19.04
2018-08-28T21:59:03.598Z,19.06
2018-08-28T22:01:36.769Z,19.14
2018-08-28T22:04:32.168Z,19.26
2018-08-28T22:07:34.483Z,19.13
2018-08-28T22:10:22.865Z,19.04
2018-08-28T22:13:51.329Z,19.01
2018-08-28T22:16:57.340Z,18.96
2018-08-28T22:20:02.303Z,18.91
2018-08-28T22:28:21.426Z,18.85
2018-08-28T22:30:39.281Z,18.78
2018-08-28T22:33:07.388Z,18.69
2018-08-28T22:35:35.476Z,18.62
2018-08-28T22:38:03.560Z,18.63
2018-08-28T22:40:31.643Z,18.56
2018-08-28T22:42:59.752Z,18.57
2018-08-28T22:45:27.832Z,18.57
2018-08-28T22:47:58.154Z,18.50
2018-08-28T22:50:30.194Z,18.53
2018-08-28T22:53:01.788Z,18.46
2018-08-28T22:55:33.501Z,18.47
2018-08-28T22:58:04.830Z,18.49
2018-08-28T23:00:37.238Z,18.53
2018-08-28T23:03:08.062Z,18.60
2018-08-28T23:05:40.033Z,18.60
2018-08-28T23:08:12.126Z,18.69
2018-08-28T23:10:43.568Z,18.73
2018-08-28T23:13:15.196Z,18.71
2018-08-28T23:15:44.871Z,18.67
2018-08-28T23:18:15.060Z,18.58
2018-08-28T23:20:43.141Z,18.61
2018-08-28T23:23:11.283Z,18.59
2018-08-28T23:25:39.333Z,18.59
2018-08-28T23:28:07.414Z,18.58
2018-08-28T23:30:35.495Z,18.50
2018-08-28T23:33:03.598Z,18.36
2018-08-28T23:35:31.663Z,18.40
2018-08-28T23:37:59.713Z,18.24
2018-08-28T23:40:27.776Z,18.20
2018-08-28T23:42:55.872Z,18.28
2018-08-28T23:45:23.942Z,18.29
2018-08-28T23:47:52.034Z,18.32
2018-08-28T23:50:20.095Z,18.30
2018-08-28T23:52:48.248Z,18.34
2018-08-28T23:55:16.279Z,18.26
2018-08-28T23:57:44.343Z,18.27
